• Join FlightAware (Why Join?)
  • Login
  • US Flag 
02:33AM EDT


 

Airport Tracker/Info


-or-


 

Live Flight TrackerFlight Track Log ✈ FLG4262 ✈ 23-Sep-2013 ✈ KDTW - KBGM

Flight Track Log - Related Links

Times and Time Zones

All times are in EDT time to prevent confusion due to time zone crossing. See the FLG4262 flight status page for this flight to view local times or setup timezone preferences in your user account.

Time Position Orientation Groundspeed Altitude Reporting Facility
EDT Latitude Longitude Course Direction KTS MPH feet Rate Location/Type
03:58PM 42.2303 -83.3508 83° East 166 191 1,400  Level Cleveland Center
04:00PM 42.3050 -83.3086 23° Northeast 211 243 4,400 2,220 Climbing Cleveland Center
04:01PM 42.2261 -82.8901 82° East  Level Estimated
04:01PM 42.3669 -83.2656 27° Northeast 266 306 6,900  Level Cleveland Center
04:01PM 42.3642 -83.2697 228° Southwest 254 292 6,800 2,580 Descending Cleveland Center
04:02PM 42.2302 -82.7356 71° East  Level Estimated
04:02PM 42.3956 -83.1650 68° East 280 322 9,500  Level Cleveland Center
04:02PM 42.3942 -83.1656 196° South 275 316 9,500 1,800 Level Cleveland Center
04:03PM 42.2342 -82.5811 94° East  Level Estimated
04:03PM 42.4206 -83.0642 71° East 283 326 11,700  Level Cleveland Center
04:04PM 42.2472 -82.4276 83° East  Level FlightAware Approximate
04:04PM 42.4039 -82.9561 102° East 313 360 13,000  Level Cleveland Center
04:05PM 42.3875 -82.8089 99° East 334 384 13,000 660 Level Cleveland Center
04:06PM 42.3806 -82.6778 94° East 346 398 14,400 1,320 Climbing Cleveland Center
04:07PM 42.3722 -82.5436 95° East 355 409 15,800 1,200 Climbing Cleveland Center
04:08PM 42.3661 -82.4050 93° East 366 421 16,900 1,140 Climbing Cleveland Center
04:09PM 42.3603 -82.2625 93° East 378 435 18,200 1,200 Climbing Cleveland Center
04:10PM 42.3531 -82.0978 93° East 378 435 19,400 960 Climbing Cleveland Center
04:11PM 42.3464 -81.9531 94° East 380 437 20,300 900 Climbing Cleveland Center
04:12PM 42.3397 -81.8042 93° East 390 449 21,300 960 Climbing Cleveland Center
04:13PM 42.3333 -81.6547 93° East 394 453 22,400 840 Climbing Cleveland Center
04:14PM 42.3256 -81.5025 94° East 400 460 23,100 720 Climbing Cleveland Center
04:15PM 42.3189 -81.3481 93° East 406 467 23,900 600 Climbing Cleveland Center
04:16PM 42.3114 -81.1914 94° East 412 474 24,400 480 Climbing Cleveland Center
04:17PM 42.3008 -81.0050 94° East 421 484 25,000 480 Climbing Cleveland Center
04:18PM 42.2931 -80.8422 94° East 428 493 25,500 480 Climbing Cleveland Center
04:19PM 42.2842 -80.6797 94° East 430 495 26,000 480 Climbing Cleveland Center
04:20PM 42.2764 -80.5178 94° East 429 494 26,500 480 Climbing Cleveland Center
04:21PM 42.2656 -80.3539 95° East 433 498 27,000 480 Climbing Cleveland Center
04:22PM 42.2564 -80.1889 94° East 438 504 27,500 480 Climbing Cleveland Center
04:24PM 42.2469 -80.0256 94° East 434 499 28,000 480 Climbing Cleveland Center
04:25PM 42.2369 -79.8633 95° East 435 501 28,500 480 Climbing Cleveland Center
04:26PM 42.2239 -79.6697 95° East 434 499 29,000 240 Climbing Cleveland Center
04:27PM 42.2136 -79.5042 95° East 444 511 29,000  Level Cleveland Center
04:28PM 42.2017 -79.3356 95° East 452 520 29,000  Level Cleveland Center
04:29PM 42.1908 -79.1636 95° East 460 529 29,000 -120 Level Cleveland Center
04:30PM 42.1908 -78.9894 90° East 465 535 28,800 -300 Descending Cleveland Center
04:31PM 42.1939 -78.8133 89° East 464 534 28,400 -780 Descending Cleveland Center
04:32PM 42.1969 -78.6033 89° East 468 539 27,300 -720 Descending Cleveland Center
04:33PM 42.2000 -78.4292 89° East 469 540 27,000 -540 Descending Cleveland Center
04:34PM 42.2025 -78.2614 89° East 456 525 26,200 -900 Descending Cleveland Center
04:35PM 42.2042 -78.0972 89° East 445 512 25,200 -1,020 Descending Cleveland Center
04:36PM 42.2064 -77.9342 89° East 440 506 24,200 -1,080 Descending Cleveland Center
04:37PM 42.2092 -77.7397 89° East 437 503 23,000 -1,200 Descending Cleveland Center
04:38PM 42.2094 -77.5789 90° East 435 501 21,800 -1,260 Descending Cleveland Center
04:39PM 42.2111 -77.4214 89° East 430 495 20,500 -1,260 Descending Cleveland Center
04:40PM 42.2108 -77.2675 90° East 420 483 19,200 -1,380 Descending Cleveland Center
04:41PM 42.2119 -77.0847 89° East 413 475 17,700 -1,380 Descending Cleveland Center
04:42PM 42.2122 -76.9947 90° East 412 474 17,000 -1,380 Descending New York Center
04:43PM 42.2111 -76.8519 91° East 400 460 15,500 -1,440 Descending New York Center
04:44PM 42.2092 -76.7256 91° East 382 440 14,100 -1,440 Descending New York Center
04:45PM 42.2119 -76.5886 88° East 375 432 12,600 -1,500 Descending New York Center
04:45PM 42.2117 -76.5278 90° East 352 405 11,900 -1,500 Descending Cleveland Center
04:46PM 42.2114 -76.4131 90° East 320 368 10,300 -1,860 Descending Cleveland Center
04:47PM 42.2100 -76.2842 91° East 291 335 8,100 -1,980 Descending Cleveland Center
04:48PM 42.2100 -76.1803 90° East 281 323 6,300 -1,620 Descending Cleveland Center
04:49PM 42.1881 -76.0906 108° East 283 326 4,800 -1,200 Descending Cleveland Center
04:50PM 42.1217 -76.0181 141° Southeast 282 325 3,900 -600 Descending Cleveland Center
04:52PM 42.0767 -75.9564 135° Southeast 222 255 3,500 -240 Descending New York Center
04:53PM 42.1275 -75.9325 19° North 119 137 3,400 -600 Descending New York Center
04:54PM 42.1686 -75.9469 345° North 113 130 2,400 -780 Descending New York Center
04:55PM 42.1956 -75.9519 352° North 106 122 1,900 -540 Descending New York Center